createdAt,value
2023-02-16T00:02:10.961Z,7.90
2023-02-16T00:04:39.290Z,7.30
2023-02-16T00:07:27.235Z,10.80
2023-02-16T00:09:55.419Z,11.50
2023-02-16T00:12:42.487Z,5.60
2023-02-16T00:15:19.073Z,12.60
2023-02-16T00:17:47.812Z,13.30
2023-02-16T00:20:18.096Z,13.90
2023-02-16T00:22:46.687Z,14.20
2023-02-16T00:25:15.134Z,9.30
2023-02-16T00:27:43.622Z,5.20
2023-02-16T00:30:17.283Z,7.60
2023-02-16T00:32:45.652Z,5.70
2023-02-16T00:35:21.362Z,7.00
2023-02-16T00:37:49.508Z,7.20
2023-02-16T00:40:17.996Z,7.10
2023-02-16T00:42:46.684Z,5.40
2023-02-16T00:45:22.454Z,4.70
2023-02-16T00:47:51.297Z,7.60
2023-02-16T00:50:30.221Z,5.30
2023-02-16T00:52:58.718Z,7.90
2023-02-16T00:55:31.955Z,5.40
2023-02-16T00:58:13.369Z,6.50
2023-02-16T01:00:43.615Z,5.60
2023-02-16T01:03:17.896Z,3.90
2023-02-16T01:05:46.101Z,3.70
2023-02-16T01:08:34.766Z,2.70
2023-02-16T01:11:10.409Z,8.10
2023-02-16T01:13:46.318Z,4.50
2023-02-16T01:16:17.363Z,2.80
2023-02-16T01:18:45.591Z,2.70
2023-02-16T01:21:14.558Z,3.60
2023-02-16T01:23:43.202Z,2.10
2023-02-16T01:26:18.887Z,2.70
2023-02-16T01:28:47.977Z,2.60
2023-02-16T01:31:17.889Z,2.70
2023-02-16T01:33:46.573Z,1.90
2023-02-16T01:36:34.318Z,4.40
2023-02-16T01:39:02.785Z,3.70
2023-02-16T01:41:53.077Z,5.60
2023-02-16T01:44:27.528Z,2.40
2023-02-16T01:47:05.829Z,2.80
2023-02-16T01:49:34.206Z,4.10
2023-02-16T01:52:11.576Z,2.90
2023-02-16T01:55:02.060Z,2.70
2023-02-16T01:57:36.890Z,3.40
2023-02-16T02:00:10.537Z,4.00
2023-02-16T02:03:20.116Z,4.30
2023-02-16T02:05:49.227Z,3.10
2023-02-16T02:08:32.450Z,3.10
2023-02-16T02:11:12.832Z,2.00
2023-02-16T02:13:46.084Z,2.30
2023-02-16T02:16:20.045Z,1.70
2023-02-16T02:18:48.759Z,1.30
2023-02-16T02:22:17.890Z,3.00
2023-02-16T02:24:52.328Z,2.20
2023-02-16T02:27:39.529Z,3.50
2023-02-16T02:30:10.518Z,2.00
2023-02-16T02:33:00.551Z,1.70
2023-02-16T02:35:48.281Z,1.30
2023-02-16T02:38:30.844Z,2.20
2023-02-16T02:41:01.006Z,0.80
2023-02-16T02:43:49.350Z,2.20
2023-02-16T02:46:24.862Z,1.50
2023-02-16T02:48:53.927Z,1.90
2023-02-16T02:51:33.699Z,2.60
2023-02-16T02:54:36.926Z,1.60
2023-02-16T02:57:30.389Z,2.20
2023-02-16T03:00:41.444Z,3.50
2023-02-16T03:03:12.108Z,2.70
2023-02-16T03:05:41.979Z,1.90
2023-02-16T03:08:14.478Z,2.00
2023-02-16T03:11:09.917Z,1.80
2023-02-16T03:13:40.238Z,3.10
2023-02-16T03:16:12.506Z,4.00
2023-02-16T03:19:00.530Z,4.20
2023-02-16T03:21:47.940Z,1.80
2023-02-16T03:24:39.260Z,3.80
2023-02-16T03:27:26.798Z,2.80
2023-02-16T03:29:55.433Z,2.40
2023-02-16T03:32:23.735Z,2.70
2023-02-16T03:34:52.010Z,1.60
2023-02-16T03:37:23.397Z,4.10
2023-02-16T03:40:10.059Z,2.70
2023-02-16T03:42:38.579Z,1.30
2023-02-16T03:45:07.442Z,2.50
2023-02-16T03:47:36.423Z,4.20
2023-02-16T03:50:05.085Z,2.70
2023-02-16T03:52:34.114Z,0.80
2023-02-16T03:55:02.476Z,2.70
2023-02-16T03:57:30.703Z,2.90
2023-02-16T03:59:59.416Z,3.40
2023-02-16T04:02:28.669Z,3.80
2023-02-16T04:04:56.920Z,3.60
2023-02-16T04:07:25.284Z,2.70
2023-02-16T04:09:53.555Z,1.00
2023-02-16T04:12:37.322Z,1.50
2023-02-16T04:15:10.584Z,2.30
2023-02-16T04:17:38.860Z,2.70
2023-02-16T04:20:08.217Z,2.30
2023-02-16T04:22:40.901Z,1.30
2023-02-16T04:25:09.336Z,1.80
2023-02-16T04:27:37.897Z,3.90
2023-02-16T04:30:07.328Z,3.10
2023-02-16T04:32:35.775Z,4.20
2023-02-16T04:35:04.579Z,2.40
2023-02-16T04:37:32.727Z,1.20
2023-02-16T04:40:01.310Z,2.60
2023-02-16T04:42:29.888Z,2.40
2023-02-16T04:44:58.165Z,4.40
2023-02-16T04:47:26.951Z,3.30
2023-02-16T04:49:55.123Z,2.40
2023-02-16T04:52:23.307Z,4.10
2023-02-16T04:54:51.565Z,2.30
2023-02-16T04:57:21.583Z,3.50
2023-02-16T04:59:49.962Z,2.50
2023-02-16T05:02:18.335Z,4.40
2023-02-16T05:04:49.167Z,4.40
2023-02-16T05:07:17.661Z,2.60
2023-02-16T05:09:46.126Z,2.50
2023-02-16T05:12:33.353Z,5.80
2023-02-16T05:15:01.745Z,3.40
2023-02-16T05:17:30.138Z,5.20
2023-02-16T05:20:00.636Z,4.40
2023-02-16T05:22:33.612Z,3.00
2023-02-16T05:25:02.206Z,4.00
2023-02-16T05:27:30.979Z,2.00
2023-02-16T05:29:59.322Z,3.80
2023-02-16T05:32:27.669Z,3.60
2023-02-16T05:34:56.510Z,2.90
2023-02-16T05:37:25.013Z,3.50
2023-02-16T05:39:53.607Z,4.10
2023-02-16T05:42:22.700Z,2.60
2023-02-16T05:44:51.043Z,2.80
2023-02-16T05:47:19.320Z,4.70
2023-02-16T05:49:47.905Z,3.50
2023-02-16T05:52:16.382Z,4.10
2023-02-16T05:54:44.605Z,4.40
2023-02-16T05:57:13.044Z,6.00
2023-02-16T05:59:41.617Z,2.20
2023-02-16T06:02:10.095Z,7.00
2023-02-16T06:04:38.481Z,4.00
2023-02-16T06:07:06.744Z,4.90
2023-02-16T06:09:35.121Z,2.50
2023-02-16T06:12:04.010Z,6.00
2023-02-16T06:14:32.384Z,1.90
2023-02-16T06:17:01.689Z,6.60
2023-02-16T06:19:32.880Z,2.90
2023-02-16T06:22:01.321Z,3.80
2023-02-16T06:24:29.891Z,3.50
2023-02-16T06:26:58.684Z,5.70
2023-02-16T06:29:26.948Z,2.20
2023-02-16T06:31:55.627Z,4.80
2023-02-16T06:34:24.519Z,3.80
2023-02-16T06:36:52.669Z,2.50
2023-02-16T06:39:20.867Z,2.70
2023-02-16T06:41:49.756Z,2.40
2023-02-16T06:44:18.749Z,2.60
2023-02-16T06:46:49.075Z,4.80
2023-02-16T06:49:18.776Z,3.70
2023-02-16T06:51:47.970Z,3.90
2023-02-16T06:54:17.263Z,2.90
2023-02-16T06:56:45.589Z,3.90
2023-02-16T06:59:14.542Z,2.50
2023-02-16T07:01:45.187Z,3.00
2023-02-16T07:04:14.035Z,1.80
2023-02-16T07:06:42.805Z,2.80
2023-02-16T07:09:14.450Z,2.80
2023-02-16T07:11:43.012Z,3.60
2023-02-16T07:14:13.631Z,4.00
2023-02-16T07:16:42.700Z,4.90
2023-02-16T07:19:10.917Z,4.10
2023-02-16T07:21:39.853Z,3.90
2023-02-16T07:24:08.359Z,3.20
2023-02-16T07:26:38.816Z,3.70
2023-02-16T07:29:07.030Z,4.70
2023-02-16T07:31:35.419Z,6.20
2023-02-16T07:34:04.043Z,3.30
2023-02-16T07:36:32.275Z,3.60
2023-02-16T07:39:00.566Z,2.80
2023-02-16T07:41:29.037Z,3.70
2023-02-16T07:43:57.746Z,3.70
2023-02-16T07:46:25.982Z,2.10
2023-02-16T07:48:54.416Z,5.60
2023-02-16T07:51:23.906Z,4.30
2023-02-16T07:53:55.386Z,4.60
2023-02-16T07:56:28.835Z,4.70
2023-02-16T07:58:57.606Z,4.30
2023-02-16T08:01:26.264Z,5.30
2023-02-16T08:03:54.440Z,2.90
2023-02-16T08:06:22.716Z,4.40
2023-02-16T08:08:51.027Z,4.30
2023-02-16T08:11:21.291Z,4.50
2023-02-16T08:13:50.587Z,3.80
2023-02-16T08:16:21.928Z,5.70
2023-02-16T08:18:52.392Z,6.60
2023-02-16T08:21:22.097Z,6.90
2023-02-16T08:23:55.569Z,5.80
2023-02-16T08:26:24.788Z,3.20
2023-02-16T08:28:53.986Z,3.20
2023-02-16T08:31:25.863Z,2.90
2023-02-16T08:33:55.144Z,3.60
2023-02-16T08:36:25.257Z,3.90
2023-02-16T08:38:53.910Z,1.50
2023-02-16T08:41:23.523Z,3.90
2023-02-16T08:43:52.642Z,3.80
2023-02-16T08:46:21.915Z,1.80
2023-02-16T08:48:50.522Z,2.20
2023-02-16T08:51:19.918Z,2.40
2023-02-16T08:53:52.452Z,2.10
2023-02-16T08:56:21.145Z,3.70
2023-02-16T08:58:49.425Z,2.90
2023-02-16T09:01:17.736Z,3.10
2023-02-16T09:03:46.395Z,3.60
2023-02-16T09:06:16.428Z,2.90
2023-02-16T09:08:46.673Z,4.60
2023-02-16T09:11:16.254Z,2.50
2023-02-16T09:13:44.897Z,3.10
2023-02-16T09:16:22.785Z,2.80
2023-02-16T09:18:55.308Z,3.90
2023-02-16T09:21:25.632Z,5.00
2023-02-16T09:23:55.906Z,4.50
2023-02-16T09:26:25.645Z,4.00
2023-02-16T09:28:54.446Z,2.70
2023-02-16T09:31:29.189Z,4.50
2023-02-16T09:36:38.114Z,3.70
2023-02-16T09:39:08.281Z,3.10
2023-02-16T09:42:02.206Z,4.30
2023-02-16T09:45:11.433Z,4.50
2023-02-16T09:47:46.299Z,4.40
2023-02-16T09:53:06.697Z,4.90
2023-02-16T09:55:40.932Z,3.10
2023-02-16T09:58:44.028Z,3.80
2023-02-16T10:01:37.117Z,4.30
2023-02-16T10:04:12.240Z,2.80
2023-02-16T10:07:03.418Z,2.10
2023-02-16T10:09:32.238Z,3.20
2023-02-16T10:12:02.656Z,2.10
2023-02-16T10:15:14.456Z,3.40
2023-02-16T10:18:08.384Z,2.30
2023-02-16T10:20:40.713Z,2.50
2023-02-16T10:23:36.916Z,3.40
2023-02-16T10:26:14.048Z,4.90
2023-02-16T10:28:48.308Z,6.10
2023-02-16T10:31:27.083Z,4.70
2023-02-16T10:34:24.903Z,2.70
2023-02-16T10:37:31.243Z,1.40
2023-02-16T10:40:05.858Z,2.50
2023-02-16T10:42:58.809Z,2.40
2023-02-16T10:45:45.261Z,2.90
2023-02-16T10:48:15.050Z,1.60
2023-02-16T10:50:54.840Z,2.30
2023-02-16T10:53:32.603Z,1.90
2023-02-16T10:56:01.728Z,2.30
2023-02-16T10:58:37.674Z,2.70
2023-02-16T11:01:14.848Z,4.50
2023-02-16T11:03:50.269Z,2.60
2023-02-16T11:06:19.581Z,3.20
2023-02-16T11:08:54.457Z,3.10
2023-02-16T11:11:25.615Z,2.60
2023-02-16T11:14:10.843Z,4.70
2023-02-16T11:16:39.070Z,3.60
2023-02-16T11:19:09.531Z,3.60
2023-02-16T11:21:44.993Z,2.80
2023-02-16T11:24:24.160Z,2.50
2023-02-16T11:27:07.499Z,3.50
2023-02-16T11:29:37.813Z,2.10
2023-02-16T11:32:13.936Z,3.10
2023-02-16T11:35:03.537Z,3.30
2023-02-16T11:37:33.467Z,2.70
2023-02-16T11:40:18.246Z,2.70
2023-02-16T11:42:48.484Z,1.60
2023-02-16T11:45:32.307Z,2.40
2023-02-16T11:48:11.284Z,2.00
2023-02-16T11:50:54.665Z,1.70
2023-02-16T11:53:24.712Z,1.40
2023-02-16T11:56:09.019Z,1.30
2023-02-16T11:58:37.961Z,1.60
2023-02-16T12:01:18.278Z,2.80
2023-02-16T12:04:18.220Z,1.80
2023-02-16T12:07:15.651Z,2.20
2023-02-16T12:09:46.975Z,1.90
2023-02-16T12:12:37.869Z,2.00
2023-02-16T12:15:21.387Z,1.70
2023-02-16T12:18:14.239Z,2.10
2023-02-16T12:21:42.393Z,2.80
2023-02-16T12:24:37.538Z,3.10
2023-02-16T12:27:30.808Z,2.70
2023-02-16T12:30:10.234Z,1.90
2023-02-16T12:32:57.973Z,1.50
2023-02-16T12:35:38.163Z,2.00
2023-02-16T12:38:33.705Z,1.10
2023-02-16T12:41:20.550Z,2.60
2023-02-16T12:46:24.130Z,1.60
2023-02-16T12:49:16.711Z,1.70
2023-02-16T12:51:53.585Z,2.40
2023-02-16T12:54:30.119Z,1.40
2023-02-16T12:57:05.130Z,1.70
2023-02-16T12:59:56.810Z,3.30
2023-02-16T13:02:40.481Z,2.70
2023-02-16T13:05:18.296Z,2.40
2023-02-16T13:07:49.578Z,3.20
2023-02-16T13:10:22.272Z,2.70
2023-02-16T13:13:06.774Z,2.00
2023-02-16T13:15:37.463Z,2.90
2023-02-16T13:18:09.627Z,3.20
2023-02-16T13:20:41.893Z,3.10
2023-02-16T13:23:35.554Z,2.10
2023-02-16T13:26:38.500Z,2.60
2023-02-16T13:29:26.600Z,3.80
2023-02-16T13:32:05.847Z,2.40
2023-02-16T13:34:47.334Z,4.20
2023-02-16T13:37:25.276Z,4.80
2023-02-16T13:40:01.369Z,3.60
2023-02-16T13:42:41.431Z,2.10
2023-02-16T13:45:16.936Z,1.40
2023-02-16T13:47:46.288Z,2.90
2023-02-16T13:50:20.914Z,1.90
2023-02-16T13:52:52.712Z,2.20
2023-02-16T13:55:29.005Z,2.30
2023-02-16T13:58:00.288Z,2.20
2023-02-16T14:00:45.424Z,2.30
2023-02-16T14:03:16.875Z,2.20
2023-02-16T14:05:51.015Z,3.00
2023-02-16T14:08:27.700Z,2.60
2023-02-16T14:11:04.241Z,5.40
2023-02-16T14:13:33.415Z,4.90
2023-02-16T14:16:10.915Z,2.50
2023-02-16T14:18:46.447Z,1.90
2023-02-16T14:21:24.253Z,2.10
2023-02-16T14:23:59.626Z,1.80
2023-02-16T14:26:27.924Z,2.90
2023-02-16T14:28:57.068Z,2.30
2023-02-16T14:31:26.134Z,2.40
2023-02-16T14:34:04.058Z,2.50
2023-02-16T14:36:33.777Z,2.50
2023-02-16T14:39:02.423Z,2.70
2023-02-16T14:41:33.328Z,2.00
2023-02-16T14:44:04.967Z,2.50
2023-02-16T14:46:42.617Z,2.70
2023-02-16T14:49:36.482Z,3.60
2023-02-16T14:52:22.806Z,3.00
2023-02-16T14:55:26.815Z,2.30
2023-02-16T14:57:58.879Z,1.70
2023-02-16T15:00:44.227Z,1.90
2023-02-16T15:03:24.502Z,2.00
2023-02-16T15:06:02.579Z,2.80
2023-02-16T15:08:37.394Z,3.20
2023-02-16T15:11:15.462Z,2.40
2023-02-16T15:13:44.211Z,3.40
2023-02-16T15:16:15.397Z,3.90
2023-02-16T15:18:56.046Z,3.20
2023-02-16T15:21:30.963Z,3.50
2023-02-16T15:24:01.080Z,2.50
2023-02-16T15:26:33.224Z,2.50
2023-02-16T15:29:27.424Z,2.30
2023-02-16T15:31:58.860Z,1.80
2023-02-16T15:34:35.083Z,2.30
2023-02-16T15:37:22.274Z,1.80
2023-02-16T15:40:08.653Z,1.70
2023-02-16T15:42:40.004Z,2.40
2023-02-16T15:45:29.788Z,2.60
2023-02-16T15:48:28.281Z,1.00
2023-02-16T15:51:15.041Z,2.00
2023-02-16T15:54:14.218Z,1.50
2023-02-16T15:56:50.152Z,2.50
2023-02-16T15:59:41.028Z,1.60
2023-02-16T16:02:18.364Z,1.30
2023-02-16T16:04:54.908Z,2.20
2023-02-16T16:07:35.798Z,2.20
2023-02-16T16:10:18.051Z,1.00
2023-02-16T16:12:51.469Z,1.00
2023-02-16T16:15:23.849Z,1.90
2023-02-16T16:18:00.081Z,2.00
2023-02-16T16:20:31.080Z,2.30
2023-02-16T16:23:07.366Z,2.70
2023-02-16T16:25:37.014Z,1.50
2023-02-16T16:28:11.783Z,1.40
2023-02-16T16:30:44.038Z,2.70
2023-02-16T16:33:14.802Z,2.90
2023-02-16T16:35:51.685Z,4.00
2023-02-16T16:38:30.021Z,4.70
2023-02-16T16:40:59.558Z,1.70
2023-02-16T16:43:31.516Z,2.80
2023-02-16T16:46:24.705Z,2.60
2023-02-16T16:49:00.835Z,3.60
2023-02-16T16:51:39.551Z,2.20
2023-02-16T16:54:32.867Z,3.10
2023-02-16T16:57:05.990Z,4.50
2023-02-16T16:59:35.391Z,4.30
2023-02-16T17:02:04.695Z,2.30
2023-02-16T17:04:33.253Z,3.50
2023-02-16T17:07:02.433Z,2.20
2023-02-16T17:09:37.013Z,2.70
2023-02-16T17:12:09.527Z,2.90
2023-02-16T17:14:38.124Z,3.30
2023-02-16T17:17:13.037Z,2.70
2023-02-16T17:19:42.503Z,4.00
2023-02-16T17:22:15.219Z,3.50
2023-02-16T17:24:46.080Z,3.80
2023-02-16T17:27:14.655Z,3.90
2023-02-16T17:29:43.187Z,3.30
2023-02-16T17:32:11.770Z,3.70
2023-02-16T17:34:40.378Z,3.40
2023-02-16T17:37:10.210Z,3.60
2023-02-16T17:39:39.796Z,3.90
2023-02-16T17:42:12.189Z,3.60
2023-02-16T17:44:41.104Z,3.10
2023-02-16T17:47:18.360Z,2.50
2023-02-16T17:49:47.547Z,4.60
2023-02-16T17:52:17.776Z,5.50
2023-02-16T17:54:46.446Z,4.50
2023-02-16T17:57:15.040Z,4.30
2023-02-16T17:59:45.976Z,3.70
2023-02-16T18:02:19.093Z,3.50
2023-02-16T18:04:47.956Z,2.30
2023-02-16T18:07:19.290Z,3.40
2023-02-16T18:09:51.699Z,4.50
2023-02-16T18:12:20.387Z,3.10
2023-02-16T18:14:48.825Z,3.10
2023-02-16T18:17:17.307Z,2.30
2023-02-16T18:19:45.682Z,2.50
2023-02-16T18:22:14.487Z,4.50
2023-02-16T18:24:44.701Z,3.20
2023-02-16T18:27:14.396Z,2.90
2023-02-16T18:29:43.102Z,2.50
2023-02-16T18:32:15.050Z,2.70
2023-02-16T18:34:45.993Z,2.10
2023-02-16T18:37:14.613Z,1.10
2023-02-16T18:39:46.324Z,2.10
2023-02-16T18:42:17.156Z,3.10
2023-02-16T18:44:49.224Z,2.80
2023-02-16T18:47:20.363Z,3.10
2023-02-16T18:49:50.639Z,2.50
2023-02-16T18:52:19.703Z,1.50
2023-02-16T18:54:57.878Z,3.20
2023-02-16T18:57:47.270Z,1.10
2023-02-16T19:00:16.865Z,2.60
2023-02-16T19:02:47.387Z,3.40
2023-02-16T19:05:19.042Z,2.70
2023-02-16T19:07:50.998Z,1.70
2023-02-16T19:10:23.069Z,2.70
2023-02-16T19:12:54.100Z,1.40
2023-02-16T19:15:23.230Z,1.10
2023-02-16T19:17:51.804Z,2.70
2023-02-16T19:20:24.869Z,2.10
2023-02-16T19:22:53.348Z,1.60
2023-02-16T19:25:24.075Z,2.10
2023-02-16T19:27:52.861Z,2.90
2023-02-16T19:30:24.427Z,1.10
2023-02-16T19:32:54.272Z,2.50
2023-02-16T19:35:23.635Z,2.70
2023-02-16T19:37:52.103Z,1.70
2023-02-16T19:40:20.791Z,4.10
2023-02-16T19:42:50.326Z,3.20
2023-02-16T19:45:20.408Z,2.20
2023-02-16T19:47:51.077Z,3.20
2023-02-16T19:50:19.520Z,1.80
2023-02-16T19:52:47.691Z,2.90
2023-02-16T19:55:16.159Z,4.40
2023-02-16T19:57:44.441Z,3.70
2023-02-16T20:00:15.784Z,4.60
2023-02-16T20:02:44.074Z,2.30
2023-02-16T20:05:13.251Z,3.10
2023-02-16T20:07:44.174Z,2.00
2023-02-16T20:10:15.027Z,3.20
2023-02-16T20:12:43.402Z,2.60
2023-02-16T20:15:16.288Z,1.70
2023-02-16T20:17:47.945Z,2.50
2023-02-16T20:20:18.469Z,4.00
2023-02-16T20:22:47.153Z,2.90
2023-02-16T20:25:15.788Z,2.90
2023-02-16T20:27:44.303Z,2.90
2023-02-16T20:30:17.757Z,2.50
2023-02-16T20:32:47.844Z,3.00
2023-02-16T20:35:16.615Z,2.90
2023-02-16T20:37:44.817Z,3.30
2023-02-16T20:40:13.682Z,3.00
2023-02-16T20:42:41.844Z,3.40
2023-02-16T20:45:10.125Z,5.90
2023-02-16T20:47:38.365Z,5.30
2023-02-16T20:50:07.586Z,5.20
2023-02-16T20:52:36.004Z,4.30
2023-02-16T20:55:04.954Z,2.10
2023-02-16T20:57:35.479Z,1.50
2023-02-16T21:00:16.660Z,5.20
2023-02-16T21:02:45.362Z,7.40
2023-02-16T21:05:14.115Z,7.00
2023-02-16T21:07:42.626Z,4.90
2023-02-16T21:10:14.317Z,5.50
2023-02-16T21:12:42.581Z,3.50
2023-02-16T21:15:11.015Z,5.10
2023-02-16T21:17:41.890Z,2.90
2023-02-16T21:20:10.957Z,2.90
2023-02-16T21:22:39.529Z,3.80
2023-02-16T21:25:09.129Z,5.00
2023-02-16T21:27:38.128Z,5.80
2023-02-16T21:30:07.669Z,4.20
2023-02-16T21:32:36.338Z,4.80
2023-02-16T21:35:06.294Z,3.30
2023-02-16T21:37:35.110Z,4.40
2023-02-16T21:40:22.434Z,3.70
2023-02-16T21:42:51.836Z,4.30
2023-02-16T21:45:20.105Z,3.10
2023-02-16T21:48:06.752Z,4.10
2023-02-16T21:50:37.582Z,7.20
2023-02-16T21:53:07.114Z,5.40
2023-02-16T21:55:57.350Z,5.50
2023-02-16T21:58:27.014Z,3.90
2023-02-16T22:00:56.637Z,4.60
2023-02-16T22:03:25.097Z,3.30
2023-02-16T22:05:53.301Z,7.60
2023-02-16T22:08:21.783Z,5.50
2023-02-16T22:10:50.053Z,6.10
2023-02-16T22:13:18.738Z,4.80
2023-02-16T22:15:46.909Z,4.50
2023-02-16T22:18:15.593Z,5.20
2023-02-16T22:20:44.279Z,5.10
2023-02-16T22:23:12.859Z,4.30
2023-02-16T22:25:41.315Z,5.90
2023-02-16T22:28:10.541Z,2.60
2023-02-16T22:30:39.018Z,3.90
2023-02-16T22:33:08.260Z,4.30
2023-02-16T22:35:36.602Z,5.30
2023-02-16T22:38:04.890Z,4.60
2023-02-16T22:40:33.653Z,3.70
2023-02-16T22:43:01.926Z,4.40
2023-02-16T22:45:30.800Z,5.00
2023-02-16T22:47:59.193Z,2.50
2023-02-16T22:50:27.568Z,4.30
2023-02-16T22:52:55.847Z,5.40
2023-02-16T22:55:24.323Z,3.00
2023-02-16T22:57:52.806Z,4.20
2023-02-16T23:00:21.772Z,5.50
2023-02-16T23:02:49.973Z,5.10
2023-02-16T23:05:18.368Z,3.60
2023-02-16T23:07:47.130Z,3.00
2023-02-16T23:10:16.173Z,4.40
2023-02-16T23:12:44.307Z,4.20
2023-02-16T23:15:12.903Z,4.20
2023-02-16T23:18:01.012Z,4.80
2023-02-16T23:20:32.516Z,5.40
2023-02-16T23:23:00.844Z,3.70
2023-02-16T23:25:35.057Z,3.40
2023-02-16T23:28:04.765Z,4.30
2023-02-16T23:30:33.118Z,4.70
2023-02-16T23:33:01.821Z,3.10
2023-02-16T23:35:31.688Z,5.60
2023-02-16T23:38:01.643Z,3.50
2023-02-16T23:40:29.916Z,6.40
2023-02-16T23:42:59.116Z,4.70
2023-02-16T23:45:27.487Z,4.80
2023-02-16T23:47:56.892Z,4.30
2023-02-16T23:50:25.093Z,4.60
2023-02-16T23:52:54.591Z,4.70
2023-02-16T23:55:22.738Z,3.40
2023-02-16T23:57:53.815Z,4.60
